sensor_id;sensor_type;location;lat;lon;timestamp;temperature;humidity
35607;DHT22;21729;58.392;15.656;2023-04-03T00:00:11;-4.00;99.90
35607;DHT22;21729;58.392;15.656;2023-04-03T00:02:39;-4.00;99.90
35607;DHT22;21729;58.392;15.656;2023-04-03T00:05:07;-4.00;99.90
35607;DHT22;21729;58.392;15.656;2023-04-03T00:07:34;-3.90;99.90
35607;DHT22;21729;58.392;15.656;2023-04-03T00:10:02;-3.90;97.50
35607;DHT22;21729;58.392;15.656;2023-04-03T00:12:31;-3.70;73.70
35607;DHT22;21729;58.392;15.656;2023-04-03T00:14:58;-3.70;89.00
35607;DHT22;21729;58.392;15.656;2023-04-03T00:17:25;-3.60;72.10
35607;DHT22;21729;58.392;15.656;2023-04-03T00:19:52;-3.40;33.30
35607;DHT22;21729;58.392;15.656;2023-04-03T00:22:19;-3.40;52.90
35607;DHT22;21729;58.392;15.656;2023-04-03T00:24:46;-3.60;83.20
35607;DHT22;21729;58.392;15.656;2023-04-03T00:27:14;-3.50;99.90
35607;DHT22;21729;58.392;15.656;2023-04-03T00:29:42;-3.50;99.90
35607;DHT22;21729;58.392;15.656;2023-04-03T00:32:09;-3.60;99.90
35607;DHT22;21729;58.392;15.656;2023-04-03T00:34:36;-3.60;99.90
35607;DHT22;21729;58.392;15.656;2023-04-03T00:37:04;-3.60;99.90
35607;DHT22;21729;58.392;15.656;2023-04-03T00:39:31;-3.60;99.90
35607;DHT22;21729;58.392;15.656;2023-04-03T00:41:59;-3.80;99.90
35607;DHT22;21729;58.392;15.656;2023-04-03T00:47:28;-3.90;99.90
35607;DHT22;21729;58.392;15.656;2023-04-03T00:49:57;-3.90;99.90
35607;DHT22;21729;58.392;15.656;2023-04-03T00:52:28;-3.90;99.90
35607;DHT22;21729;58.392;15.656;2023-04-03T00:54:58;-3.80;99.90
35607;DHT22;21729;58.392;15.656;2023-04-03T00:57:28;-3.80;99.90
35607;DHT22;21729;58.392;15.656;2023-04-03T00:59:59;-3.90;99.90
35607;DHT22;21729;58.392;15.656;2023-04-03T01:02:28;-4.10;99.90
35607;DHT22;21729;58.392;15.656;2023-04-03T01:04:55;-4.20;99.90
35607;DHT22;21729;58.392;15.656;2023-04-03T01:07:26;-4.30;99.90
35607;DHT22;21729;58.392;15.656;2023-04-03T01:09:57;-4.30;99.90
35607;DHT22;21729;58.392;15.656;2023-04-03T01:12:26;-4.40;99.90
35607;DHT22;21729;58.392;15.656;2023-04-03T01:14:56;-4.10;99.90
35607;DHT22;21729;58.392;15.656;2023-04-03T01:17:33;-4.20;99.90
35607;DHT22;21729;58.392;15.656;2023-04-03T01:23:11;-4.10;99.90
35607;DHT22;21729;58.392;15.656;2023-04-03T01:25:41;-4.10;99.90
35607;DHT22;21729;58.392;15.656;2023-04-03T01:28:11;-4.10;99.90
35607;DHT22;21729;58.392;15.656;2023-04-03T01:30:44;-4.10;99.90
35607;DHT22;21729;58.392;15.656;2023-04-03T01:33:15;-4.00;99.90
35607;DHT22;21729;58.392;15.656;2023-04-03T01:35:42;-4.00;99.90
35607;DHT22;21729;58.392;15.656;2023-04-03T01:38:09;-3.70;99.90
35607;DHT22;21729;58.392;15.656;2023-04-03T01:40:37;-3.90;99.90
35607;DHT22;21729;58.392;15.656;2023-04-03T01:43:04;-4.00;99.90
35607;DHT22;21729;58.392;15.656;2023-04-03T01:45:31;-4.00;99.90
35607;DHT22;21729;58.392;15.656;2023-04-03T01:47:58;-4.10;99.90
35607;DHT22;21729;58.392;15.656;2023-04-03T01:50:27;-4.10;99.90
35607;DHT22;21729;58.392;15.656;2023-04-03T01:52:54;-4.20;99.90
35607;DHT22;21729;58.392;15.656;2023-04-03T01:55:21;-4.40;99.90
35607;DHT22;21729;58.392;15.656;2023-04-03T01:57:48;-4.40;99.90
35607;DHT22;21729;58.392;15.656;2023-04-03T02:00:16;-4.60;99.90
35607;DHT22;21729;58.392;15.656;2023-04-03T02:02:43;-4.70;99.90
35607;DHT22;21729;58.392;15.656;2023-04-03T02:05:10;-4.70;99.90
35607;DHT22;21729;58.392;15.656;2023-04-03T02:07:38;-4.80;1.00
35607;DHT22;21729;58.392;15.656;2023-04-03T02:10:06;-4.90;1.00
35607;DHT22;21729;58.392;15.656;2023-04-03T02:12:33;-4.90;1.00
35607;DHT22;21729;58.392;15.656;2023-04-03T02:15:00;-4.70;1.00
35607;DHT22;21729;58.392;15.656;2023-04-03T02:17:28;-4.90;1.00
35607;DHT22;21729;58.392;15.656;2023-04-03T02:19:55;-4.90;1.00
35607;DHT22;21729;58.392;15.656;2023-04-03T02:22:22;-4.90;1.00
35607;DHT22;21729;58.392;15.656;2023-04-03T02:24:50;-4.90;1.00
35607;DHT22;21729;58.392;15.656;2023-04-03T02:27:18;-5.00;1.00
35607;DHT22;21729;58.392;15.656;2023-04-03T02:29:45;-5.00;1.00
35607;DHT22;21729;58.392;15.656;2023-04-03T02:32:12;-5.10;1.00
35607;DHT22;21729;58.392;15.656;2023-04-03T02:34:39;-5.20;1.00
35607;DHT22;21729;58.392;15.656;2023-04-03T02:37:07;-5.20;1.00
35607;DHT22;21729;58.392;15.656;2023-04-03T02:39:34;-5.00;1.00
35607;DHT22;21729;58.392;15.656;2023-04-03T02:42:03;-5.20;1.00
35607;DHT22;21729;58.392;15.656;2023-04-03T02:44:30;-5.10;1.00
35607;DHT22;21729;58.392;15.656;2023-04-03T02:46:57;-4.80;1.00
35607;DHT22;21729;58.392;15.656;2023-04-03T02:49:24;-4.70;1.00
35607;DHT22;21729;58.392;15.656;2023-04-03T02:51:51;-4.60;1.00
35607;DHT22;21729;58.392;15.656;2023-04-03T02:54:18;-4.60;1.00
35607;DHT22;21729;58.392;15.656;2023-04-03T02:56:46;-4.60;1.00
35607;DHT22;21729;58.392;15.656;2023-04-03T02:59:14;-4.80;1.00
35607;DHT22;21729;58.392;15.656;2023-04-03T03:01:42;-4.70;1.00
35607;DHT22;21729;58.392;15.656;2023-04-03T03:04:09;-4.60;1.00
35607;DHT22;21729;58.392;15.656;2023-04-03T03:06:36;-4.70;1.00
35607;DHT22;21729;58.392;15.656;2023-04-03T03:09:04;-4.80;1.00
35607;DHT22;21729;58.392;15.656;2023-04-03T03:11:31;-4.80;1.00
35607;DHT22;21729;58.392;15.656;2023-04-03T03:13:58;-4.90;1.00
35607;DHT22;21729;58.392;15.656;2023-04-03T03:16:27;-4.90;1.00
35607;DHT22;21729;58.392;15.656;2023-04-03T03:18:54;-5.00;1.00
35607;DHT22;21729;58.392;15.656;2023-04-03T03:21:21;-5.00;1.00
35607;DHT22;21729;58.392;15.656;2023-04-03T03:23:48;-5.10;1.00
35607;DHT22;21729;58.392;15.656;2023-04-03T03:26:16;-5.10;1.00
35607;DHT22;21729;58.392;15.656;2023-04-03T03:28:43;-5.20;1.00
35607;DHT22;21729;58.392;15.656;2023-04-03T03:31:10;-5.20;1.00
35607;DHT22;21729;58.392;15.656;2023-04-03T03:33:39;-4.90;1.00
35607;DHT22;21729;58.392;15.656;2023-04-03T03:36:06;-5.30;1.00
35607;DHT22;21729;58.392;15.656;2023-04-03T03:38:33;-5.30;1.00
35607;DHT22;21729;58.392;15.656;2023-04-03T03:41:00;-5.40;1.00
35607;DHT22;21729;58.392;15.656;2023-04-03T03:43:28;-5.40;1.00
35607;DHT22;21729;58.392;15.656;2023-04-03T03:45:55;-5.50;1.00
35607;DHT22;21729;58.392;15.656;2023-04-03T03:48:22;-5.60;1.00
35607;DHT22;21729;58.392;15.656;2023-04-03T03:50:51;-5.50;1.00
35607;DHT22;21729;58.392;15.656;2023-04-03T03:53:18;-5.50;1.00
35607;DHT22;21729;58.392;15.656;2023-04-03T03:55:46;-5.50;1.00
35607;DHT22;21729;58.392;15.656;2023-04-03T03:58:13;-5.50;1.00
35607;DHT22;21729;58.392;15.656;2023-04-03T04:00:40;-5.50;1.00
35607;DHT22;21729;58.392;15.656;2023-04-03T04:03:07;-5.60;1.00
35607;DHT22;21729;58.392;15.656;2023-04-03T04:05:34;-5.70;1.00
35607;DHT22;21729;58.392;15.656;2023-04-03T04:08:03;-5.70;1.00
35607;DHT22;21729;58.392;15.656;2023-04-03T04:10:30;-5.70;1.00
35607;DHT22;21729;58.392;15.656;2023-04-03T04:12:57;-5.70;4.30
35607;DHT22;21729;58.392;15.656;2023-04-03T04:15:24;-5.60;14.90
35607;DHT22;21729;58.392;15.656;2023-04-03T04:17:52;-5.60;15.20
35607;DHT22;21729;58.392;15.656;2023-04-03T04:20:20;-5.30;19.30
35607;DHT22;21729;58.392;15.656;2023-04-03T04:22:47;-5.60;13.50
35607;DHT22;21729;58.392;15.656;2023-04-03T04:25:15;-5.50;26.20
35607;DHT22;21729;58.392;15.656;2023-04-03T04:27:42;-5.50;36.20
35607;DHT22;21729;58.392;15.656;2023-04-03T04:30:11;-5.50;34.10
35607;DHT22;21729;58.392;15.656;2023-04-03T04:32:38;-5.30;42.90
35607;DHT22;21729;58.392;15.656;2023-04-03T04:35:05;-5.30;45.40
35607;DHT22;21729;58.392;15.656;2023-04-03T04:37:32;-5.40;44.10
35607;DHT22;21729;58.392;15.656;2023-04-03T04:40:00;-5.30;46.60
35607;DHT22;21729;58.392;15.656;2023-04-03T04:42:28;-5.30;53.00
35607;DHT22;21729;58.392;15.656;2023-04-03T04:44:56;-5.30;60.80
35607;DHT22;21729;58.392;15.656;2023-04-03T04:47:23;-5.10;74.50
35607;DHT22;21729;58.392;15.656;2023-04-03T04:49:50;-5.00;80.10
35607;DHT22;21729;58.392;15.656;2023-04-03T04:52:17;-5.00;70.90
35607;DHT22;21729;58.392;15.656;2023-04-03T04:54:45;-5.10;60.10
35607;DHT22;21729;58.392;15.656;2023-04-03T04:57:12;-5.00;77.90
35607;DHT22;21729;58.392;15.656;2023-04-03T04:59:40;-4.90;99.90
35607;DHT22;21729;58.392;15.656;2023-04-03T05:02:08;-4.90;72.60
35607;DHT22;21729;58.392;15.656;2023-04-03T05:04:35;-4.90;64.30
35607;DHT22;21729;58.392;15.656;2023-04-03T05:07:02;-4.90;59.80
35607;DHT22;21729;58.392;15.656;2023-04-03T05:09:29;-4.70;89.90
35607;DHT22;21729;58.392;15.656;2023-04-03T05:11:56;-4.40;91.10
35607;DHT22;21729;58.392;15.656;2023-04-03T05:14:23;-4.10;51.40
35607;DHT22;21729;58.392;15.656;2023-04-03T05:16:52;-3.90;7.10
35607;DHT22;21729;58.392;15.656;2023-04-03T05:19:19;-3.80;1.00
35607;DHT22;21729;58.392;15.656;2023-04-03T05:21:46;-3.70;1.00
35607;DHT22;21729;58.392;15.656;2023-04-03T05:24:14;-3.70;1.00
35607;DHT22;21729;58.392;15.656;2023-04-03T05:26:41;-3.60;1.00
35607;DHT22;21729;58.392;15.656;2023-04-03T05:29:09;-3.50;1.00
35607;DHT22;21729;58.392;15.656;2023-04-03T05:31:36;-3.50;1.00
35607;DHT22;21729;58.392;15.656;2023-04-03T05:34:05;-3.50;1.00
35607;DHT22;21729;58.392;15.656;2023-04-03T05:36:32;-3.40;1.00
35607;DHT22;21729;58.392;15.656;2023-04-03T05:38:59;-3.40;1.00
35607;DHT22;21729;58.392;15.656;2023-04-03T05:41:27;-3.40;1.00
35607;DHT22;21729;58.392;15.656;2023-04-03T05:43:54;-3.40;1.00
35607;DHT22;21729;58.392;15.656;2023-04-03T05:46:21;-3.30;1.00
35607;DHT22;21729;58.392;15.656;2023-04-03T05:48:48;-3.30;1.00
35607;DHT22;21729;58.392;15.656;2023-04-03T05:51:18;-3.20;1.00
35607;DHT22;21729;58.392;15.656;2023-04-03T05:53:46;-3.20;1.00
35607;DHT22;21729;58.392;15.656;2023-04-03T05:56:14;-3.20;1.00
35607;DHT22;21729;58.392;15.656;2023-04-03T05:58:41;-3.20;1.00
35607;DHT22;21729;58.392;15.656;2023-04-03T06:01:08;-3.10;1.00
35607;DHT22;21729;58.392;15.656;2023-04-03T06:03:35;-3.10;1.00
35607;DHT22;21729;58.392;15.656;2023-04-03T06:06:04;-3.00;1.00
35607;DHT22;21729;58.392;15.656;2023-04-03T06:08:32;-3.00;1.00
35607;DHT22;21729;58.392;15.656;2023-04-03T06:11:00;-2.90;1.00
35607;DHT22;21729;58.392;15.656;2023-04-03T06:13:28;-2.40;1.00
35607;DHT22;21729;58.392;15.656;2023-04-03T06:15:55;-2.80;1.00
35607;DHT22;21729;58.392;15.656;2023-04-03T06:18:23;-2.70;1.00
35607;DHT22;21729;58.392;15.656;2023-04-03T06:20:50;-2.70;1.00
35607;DHT22;21729;58.392;15.656;2023-04-03T06:23:17;-2.60;1.00
35607;DHT22;21729;58.392;15.656;2023-04-03T06:25:46;-2.50;1.00
35607;DHT22;21729;58.392;15.656;2023-04-03T06:28:13;-2.10;99.90
35607;DHT22;21729;58.392;15.656;2023-04-03T06:30:40;-2.30;1.00
35607;DHT22;21729;58.392;15.656;2023-04-03T06:33:07;-2.20;99.90
35607;DHT22;21729;58.392;15.656;2023-04-03T06:35:34;-2.00;99.90
35607;DHT22;21729;58.392;15.656;2023-04-03T06:38:04;-2.00;99.90
35607;DHT22;21729;58.392;15.656;2023-04-03T06:40:35;-1.80;99.90
35607;DHT22;21729;58.392;15.656;2023-04-03T06:43:03;-1.70;99.90
35607;DHT22;21729;58.392;15.656;2023-04-03T06:45:31;-1.60;99.90
35607;DHT22;21729;58.392;15.656;2023-04-03T06:47:58;-1.50;99.90
35607;DHT22;21729;58.392;15.656;2023-04-03T06:50:25;-1.30;99.90
35607;DHT22;21729;58.392;15.656;2023-04-03T06:52:52;-1.20;99.90
35607;DHT22;21729;58.392;15.656;2023-04-03T06:55:19;-1.10;99.90
35607;DHT22;21729;58.392;15.656;2023-04-03T06:57:47;-0.90;99.90
35607;DHT22;21729;58.392;15.656;2023-04-03T07:00:17;-0.70;99.90
35607;DHT22;21729;58.392;15.656;2023-04-03T07:02:44;-0.50;99.90
35607;DHT22;21729;58.392;15.656;2023-04-03T07:05:11;-0.50;99.90
35607;DHT22;21729;58.392;15.656;2023-04-03T07:07:39;0.40;99.90
35607;DHT22;21729;58.392;15.656;2023-04-03T07:10:08;3.90;1.00
35607;DHT22;21729;58.392;15.656;2023-04-03T07:12:35;6.50;1.00
35607;DHT22;21729;58.392;15.656;2023-04-03T07:15:04;8.20;99.90
35607;DHT22;21729;58.392;15.656;2023-04-03T07:17:33;9.00;99.90
35607;DHT22;21729;58.392;15.656;2023-04-03T07:20:00;8.40;99.90
35607;DHT22;21729;58.392;15.656;2023-04-03T07:22:27;9.10;99.90
35607;DHT22;21729;58.392;15.656;2023-04-03T07:24:54;9.10;99.90
35607;DHT22;21729;58.392;15.656;2023-04-03T07:27:21;9.70;99.90
35607;DHT22;21729;58.392;15.656;2023-04-03T07:29:48;9.90;99.90
35607;DHT22;21729;58.392;15.656;2023-04-03T07:32:15;10.60;99.90
35607;DHT22;21729;58.392;15.656;2023-04-03T07:34:44;10.60;99.90
35607;DHT22;21729;58.392;15.656;2023-04-03T07:37:11;11.10;99.90
35607;DHT22;21729;58.392;15.656;2023-04-03T07:39:38;9.80;99.90
35607;DHT22;21729;58.392;15.656;2023-04-03T07:42:06;11.00;99.90
35607;DHT22;21729;58.392;15.656;2023-04-03T07:44:33;10.00;99.90
35607;DHT22;21729;58.392;15.656;2023-04-03T07:47:01;11.50;99.90
35607;DHT22;21729;58.392;15.656;2023-04-03T07:49:28;11.20;99.90
35607;DHT22;21729;58.392;15.656;2023-04-03T07:51:57;11.90;99.90
35607;DHT22;21729;58.392;15.656;2023-04-03T07:54:24;10.60;99.90
35607;DHT22;21729;58.392;15.656;2023-04-03T07:56:51;11.80;99.90
35607;DHT22;21729;58.392;15.656;2023-04-03T07:59:18;12.00;99.90
35607;DHT22;21729;58.392;15.656;2023-04-03T08:01:45;11.70;99.90
35607;DHT22;21729;58.392;15.656;2023-04-03T08:04:12;11.70;99.90
35607;DHT22;21729;58.392;15.656;2023-04-03T08:06:40;11.90;99.90
35607;DHT22;21729;58.392;15.656;2023-04-03T08:09:08;11.80;99.90
35607;DHT22;21729;58.392;15.656;2023-04-03T08:11:38;11.90;99.90
35607;DHT22;21729;58.392;15.656;2023-04-03T08:14:05;12.50;99.90
35607;DHT22;21729;58.392;15.656;2023-04-03T08:16:32;10.80;99.90
35607;DHT22;21729;58.392;15.656;2023-04-03T08:19:00;11.40;99.90
35607;DHT22;21729;58.392;15.656;2023-04-03T08:21:27;11.50;99.90
35607;DHT22;21729;58.392;15.656;2023-04-03T08:23:54;12.30;99.90
35607;DHT22;21729;58.392;15.656;2023-04-03T08:26:23;11.30;99.90
35607;DHT22;21729;58.392;15.656;2023-04-03T08:28:52;12.10;99.90
35607;DHT22;21729;58.392;15.656;2023-04-03T08:31:19;11.60;99.90
35607;DHT22;21729;58.392;15.656;2023-04-03T08:33:48;12.80;99.90
35607;DHT22;21729;58.392;15.656;2023-04-03T08:36:20;11.80;99.90
35607;DHT22;21729;58.392;15.656;2023-04-03T08:38:48;10.40;99.90
35607;DHT22;21729;58.392;15.656;2023-04-03T08:41:20;11.50;99.90
35607;DHT22;21729;58.392;15.656;2023-04-03T08:44:01;12.40;99.90
35607;DHT22;21729;58.392;15.656;2023-04-03T08:46:41;11.70;99.90
35607;DHT22;21729;58.392;15.656;2023-04-03T08:49:15;12.10;99.90
35607;DHT22;21729;58.392;15.656;2023-04-03T08:51:47;11.90;99.90
35607;DHT22;21729;58.392;15.656;2023-04-03T08:54:26;11.10;99.90
35607;DHT22;21729;58.392;15.656;2023-04-03T08:56:55;12.10;99.90
35607;DHT22;21729;58.392;15.656;2023-04-03T08:59:28;12.10;99.90
35607;DHT22;21729;58.392;15.656;2023-04-03T09:01:58;11.90;99.90
35607;DHT22;21729;58.392;15.656;2023-04-03T09:04:28;12.30;99.90
35607;DHT22;21729;58.392;15.656;2023-04-03T09:07:02;12.40;99.90
35607;DHT22;21729;58.392;15.656;2023-04-03T09:09:33;12.80;99.90
35607;DHT22;21729;58.392;15.656;2023-04-03T09:12:11;11.70;99.90
35607;DHT22;21729;58.392;15.656;2023-04-03T09:14:45;11.30;99.90
35607;DHT22;21729;58.392;15.656;2023-04-03T09:17:24;11.30;99.90
35607;DHT22;21729;58.392;15.656;2023-04-03T09:19:58;12.20;99.90
35607;DHT22;21729;58.392;15.656;2023-04-03T09:22:32;12.40;99.90
35607;DHT22;21729;58.392;15.656;2023-04-03T09:25:04;11.20;99.90
35607;DHT22;21729;58.392;15.656;2023-04-03T09:27:33;10.70;99.90
35607;DHT22;21729;58.392;15.656;2023-04-03T09:30:03;12.20;99.90
35607;DHT22;21729;58.392;15.656;2023-04-03T09:32:34;12.20;99.90
35607;DHT22;21729;58.392;15.656;2023-04-03T09:35:04;12.30;99.90
35607;DHT22;21729;58.392;15.656;2023-04-03T09:37:40;11.70;99.90
35607;DHT22;21729;58.392;15.656;2023-04-03T09:40:33;10.90;99.90
35607;DHT22;21729;58.392;15.656;2023-04-03T09:43:02;10.90;99.90
35607;DHT22;21729;58.392;15.656;2023-04-03T09:45:47;12.00;99.90
35607;DHT22;21729;58.392;15.656;2023-04-03T09:48:17;11.20;99.90
35607;DHT22;21729;58.392;15.656;2023-04-03T09:50:56;11.90;99.90
35607;DHT22;21729;58.392;15.656;2023-04-03T09:53:31;10.10;99.90
35607;DHT22;21729;58.392;15.656;2023-04-03T09:56:01;10.60;99.90
35607;DHT22;21729;58.392;15.656;2023-04-03T09:58:30;10.70;99.90
35607;DHT22;21729;58.392;15.656;2023-04-03T10:01:01;11.00;99.90
35607;DHT22;21729;58.392;15.656;2023-04-03T10:03:30;11.60;99.90
35607;DHT22;21729;58.392;15.656;2023-04-03T10:05:58;11.60;99.90
35607;DHT22;21729;58.392;15.656;2023-04-03T10:08:28;11.80;99.90
35607;DHT22;21729;58.392;15.656;2023-04-03T10:11:12;11.50;99.90
35607;DHT22;21729;58.392;15.656;2023-04-03T10:13:55;11.50;99.90
35607;DHT22;21729;58.392;15.656;2023-04-03T10:16:32;9.10;99.90
35607;DHT22;21729;58.392;15.656;2023-04-03T10:19:14;7.60;99.90
35607;DHT22;21729;58.392;15.656;2023-04-03T10:21:49;5.80;99.90
35607;DHT22;21729;58.392;15.656;2023-04-03T10:24:21;5.50;99.90
35607;DHT22;21729;58.392;15.656;2023-04-03T10:26:55;5.40;99.90
35607;DHT22;21729;58.392;15.656;2023-04-03T10:29:40;5.20;99.90
35607;DHT22;21729;58.392;15.656;2023-04-03T10:32:43;5.30;99.90
35607;DHT22;21729;58.392;15.656;2023-04-03T10:35:24;5.40;99.90
35607;DHT22;21729;58.392;15.656;2023-04-03T10:38:01;4.80;99.90
35607;DHT22;21729;58.392;15.656;2023-04-03T10:40:33;4.90;99.90
35607;DHT22;21729;58.392;15.656;2023-04-03T10:43:06;4.80;99.90
35607;DHT22;21729;58.392;15.656;2023-04-03T10:45:52;4.90;99.90
35607;DHT22;21729;58.392;15.656;2023-04-03T10:48:31;4.60;99.90
35607;DHT22;21729;58.392;15.656;2023-04-03T10:51:10;4.70;99.90
35607;DHT22;21729;58.392;15.656;2023-04-03T10:53:45;4.80;99.90
35607;DHT22;21729;58.392;15.656;2023-04-03T10:56:18;4.60;99.90
35607;DHT22;21729;58.392;15.656;2023-04-03T10:58:52;4.20;99.90
35607;DHT22;21729;58.392;15.656;2023-04-03T11:01:24;4.50;99.90
35607;DHT22;21729;58.392;15.656;2023-04-03T11:03:57;4.80;99.90
35607;DHT22;21729;58.392;15.656;2023-04-03T11:06:28;4.40;99.90
35607;DHT22;21729;58.392;15.656;2023-04-03T11:09:03;4.60;99.90
35607;DHT22;21729;58.392;15.656;2023-04-03T11:11:34;4.30;99.90
35607;DHT22;21729;58.392;15.656;2023-04-03T11:14:04;4.30;99.90
35607;DHT22;21729;58.392;15.656;2023-04-03T11:16:35;4.30;99.90
35607;DHT22;21729;58.392;15.656;2023-04-03T11:19:14;4.30;99.90
35607;DHT22;21729;58.392;15.656;2023-04-03T11:21:51;4.50;99.90
35607;DHT22;21729;58.392;15.656;2023-04-03T11:24:24;4.30;99.90
35607;DHT22;21729;58.392;15.656;2023-04-03T11:26:54;4.40;99.90
35607;DHT22;21729;58.392;15.656;2023-04-03T11:29:24;4.00;99.90
35607;DHT22;21729;58.392;15.656;2023-04-03T11:32:13;4.00;99.90
35607;DHT22;21729;58.392;15.656;2023-04-03T11:34:47;4.10;99.90
35607;DHT22;21729;58.392;15.656;2023-04-03T11:37:22;4.00;99.90
35607;DHT22;21729;58.392;15.656;2023-04-03T11:39:56;4.10;99.90
35607;DHT22;21729;58.392;15.656;2023-04-03T11:42:29;4.10;99.90
35607;DHT22;21729;58.392;15.656;2023-04-03T11:45:25;4.10;99.90
35607;DHT22;21729;58.392;15.656;2023-04-03T11:47:55;4.20;99.90
35607;DHT22;21729;58.392;15.656;2023-04-03T11:50:45;4.30;99.90
35607;DHT22;21729;58.392;15.656;2023-04-03T11:53:32;4.40;99.90
35607;DHT22;21729;58.392;15.656;2023-04-03T11:56:26;4.40;99.90
35607;DHT22;21729;58.392;15.656;2023-04-03T11:59:16;4.60;99.90
35607;DHT22;21729;58.392;15.656;2023-04-03T12:01:49;4.40;99.90
35607;DHT22;21729;58.392;15.656;2023-04-03T12:04:18;4.40;99.90
35607;DHT22;21729;58.392;15.656;2023-04-03T12:09:56;4.30;99.90
35607;DHT22;21729;58.392;15.656;2023-04-03T12:12:33;4.20;99.90
35607;DHT22;21729;58.392;15.656;2023-04-03T12:15:24;4.20;99.90
35607;DHT22;21729;58.392;15.656;2023-04-03T12:17:52;4.30;99.90
35607;DHT22;21729;58.392;15.656;2023-04-03T12:20:54;4.40;99.90
35607;DHT22;21729;58.392;15.656;2023-04-03T12:23:32;4.40;99.90
35607;DHT22;21729;58.392;15.656;2023-04-03T12:26:06;4.30;99.90
35607;DHT22;21729;58.392;15.656;2023-04-03T12:28:48;4.30;99.90
35607;DHT22;21729;58.392;15.656;2023-04-03T12:31:19;4.50;99.90
35607;DHT22;21729;58.392;15.656;2023-04-03T12:34:11;4.60;99.90
35607;DHT22;21729;58.392;15.656;2023-04-03T12:36:46;4.60;99.90
35607;DHT22;21729;58.392;15.656;2023-04-03T12:42:35;4.50;99.90
35607;DHT22;21729;58.392;15.656;2023-04-03T12:45:16;4.50;99.90
35607;DHT22;21729;58.392;15.656;2023-04-03T12:47:45;4.30;99.90
35607;DHT22;21729;58.392;15.656;2023-04-03T12:50:23;4.30;99.90
35607;DHT22;21729;58.392;15.656;2023-04-03T12:53:00;4.50;99.90
35607;DHT22;21729;58.392;15.656;2023-04-03T12:55:30;4.60;99.90
35607;DHT22;21729;58.392;15.656;2023-04-03T12:58:12;4.70;99.90
35607;DHT22;21729;58.392;15.656;2023-04-03T13:00:39;4.40;99.90
35607;DHT22;21729;58.392;15.656;2023-04-03T13:03:21;4.60;99.90
35607;DHT22;21729;58.392;15.656;2023-04-03T13:05:49;4.80;99.90
35607;DHT22;21729;58.392;15.656;2023-04-03T13:08:17;4.60;99.90
35607;DHT22;21729;58.392;15.656;2023-04-03T13:10:54;4.60;99.90
35607;DHT22;21729;58.392;15.656;2023-04-03T13:13:22;4.60;99.90
35607;DHT22;21729;58.392;15.656;2023-04-03T13:15:50;4.80;99.90
35607;DHT22;21729;58.392;15.656;2023-04-03T13:18:22;4.80;99.90
35607;DHT22;21729;58.392;15.656;2023-04-03T13:20:50;4.60;99.90
35607;DHT22;21729;58.392;15.656;2023-04-03T13:23:18;4.50;99.90
35607;DHT22;21729;58.392;15.656;2023-04-03T13:25:51;4.40;99.90
35607;DHT22;21729;58.392;15.656;2023-04-03T13:28:20;4.20;99.90
35607;DHT22;21729;58.392;15.656;2023-04-03T13:30:58;4.30;99.90
35607;DHT22;21729;58.392;15.656;2023-04-03T13:33:29;4.30;99.90
35607;DHT22;21729;58.392;15.656;2023-04-03T13:36:00;4.20;99.90
35607;DHT22;21729;58.392;15.656;2023-04-03T13:38:29;4.10;99.90
35607;DHT22;21729;58.392;15.656;2023-04-03T13:41:02;4.10;99.90
35607;DHT22;21729;58.392;15.656;2023-04-03T13:43:32;4.10;99.90
35607;DHT22;21729;58.392;15.656;2023-04-03T13:46:20;4.00;99.90
35607;DHT22;21729;58.392;15.656;2023-04-03T13:48:50;4.00;99.90
35607;DHT22;21729;58.392;15.656;2023-04-03T13:51:20;4.00;99.90
35607;DHT22;21729;58.392;15.656;2023-04-03T13:53:51;4.00;99.90
35607;DHT22;21729;58.392;15.656;2023-04-03T13:56:24;4.00;99.90
35607;DHT22;21729;58.392;15.656;2023-04-03T13:58:58;4.10;99.90
35607;DHT22;21729;58.392;15.656;2023-04-03T14:01:34;4.00;99.90
35607;DHT22;21729;58.392;15.656;2023-04-03T14:04:13;4.00;99.90
35607;DHT22;21729;58.392;15.656;2023-04-03T14:06:41;4.00;99.90
35607;DHT22;21729;58.392;15.656;2023-04-03T14:09:08;4.00;99.90
35607;DHT22;21729;58.392;15.656;2023-04-03T14:11:37;3.80;99.90
35607;DHT22;21729;58.392;15.656;2023-04-03T14:14:11;3.90;99.90
35607;DHT22;21729;58.392;15.656;2023-04-03T14:16:41;4.00;99.90
35607;DHT22;21729;58.392;15.656;2023-04-03T14:19:17;4.00;99.90
35607;DHT22;21729;58.392;15.656;2023-04-03T14:21:45;3.90;99.90
35607;DHT22;21729;58.392;15.656;2023-04-03T14:24:12;3.80;99.90
35607;DHT22;21729;58.392;15.656;2023-04-03T14:26:41;3.80;99.90
35607;DHT22;21729;58.392;15.656;2023-04-03T14:29:10;3.80;99.90
35607;DHT22;21729;58.392;15.656;2023-04-03T14:31:38;3.80;99.90
35607;DHT22;21729;58.392;15.656;2023-04-03T14:34:06;3.80;99.90
35607;DHT22;21729;58.392;15.656;2023-04-03T14:36:33;3.80;99.90
35607;DHT22;21729;58.392;15.656;2023-04-03T14:39:01;3.80;99.90
35607;DHT22;21729;58.392;15.656;2023-04-03T14:41:28;3.80;99.90
35607;DHT22;21729;58.392;15.656;2023-04-03T14:43:59;3.60;99.90
35607;DHT22;21729;58.392;15.656;2023-04-03T14:46:30;3.70;99.90
35607;DHT22;21729;58.392;15.656;2023-04-03T14:48:58;3.70;99.90
35607;DHT22;21729;58.392;15.656;2023-04-03T14:51:25;3.70;99.90
35607;DHT22;21729;58.392;15.656;2023-04-03T14:53:53;3.70;99.90
35607;DHT22;21729;58.392;15.656;2023-04-03T14:56:28;3.70;99.90
35607;DHT22;21729;58.392;15.656;2023-04-03T14:58:59;3.60;99.90
35607;DHT22;21729;58.392;15.656;2023-04-03T15:01:27;3.70;99.90
35607;DHT22;21729;58.392;15.656;2023-04-03T15:03:55;3.60;99.90
35607;DHT22;21729;58.392;15.656;2023-04-03T15:06:22;3.60;99.90
35607;DHT22;21729;58.392;15.656;2023-04-03T15:08:49;3.60;99.90
35607;DHT22;21729;58.392;15.656;2023-04-03T15:11:16;3.60;99.90
35607;DHT22;21729;58.392;15.656;2023-04-03T15:13:43;3.50;99.90
35607;DHT22;21729;58.392;15.656;2023-04-03T15:16:16;3.60;99.90
35607;DHT22;21729;58.392;15.656;2023-04-03T15:18:45;3.50;99.90
35607;DHT22;21729;58.392;15.656;2023-04-03T15:21:13;3.50;99.90
35607;DHT22;21729;58.392;15.656;2023-04-03T15:23:40;3.50;99.90
35607;DHT22;21729;58.392;15.656;2023-04-03T15:26:09;3.50;99.90
35607;DHT22;21729;58.392;15.656;2023-04-03T15:28:37;3.30;99.90
35607;DHT22;21729;58.392;15.656;2023-04-03T15:31:06;3.30;99.90
35607;DHT22;21729;58.392;15.656;2023-04-03T15:33:35;3.20;99.90
35607;DHT22;21729;58.392;15.656;2023-04-03T15:36:03;3.20;99.90
35607;DHT22;21729;58.392;15.656;2023-04-03T15:38:31;3.10;99.90
35607;DHT22;21729;58.392;15.656;2023-04-03T15:40:58;3.10;99.90
35607;DHT22;21729;58.392;15.656;2023-04-03T15:43:25;3.20;99.90
35607;DHT22;21729;58.392;15.656;2023-04-03T15:45:52;3.10;99.90
35607;DHT22;21729;58.392;15.656;2023-04-03T15:48:23;3.20;99.90
35607;DHT22;21729;58.392;15.656;2023-04-03T15:50:51;3.20;99.90
35607;DHT22;21729;58.392;15.656;2023-04-03T15:53:18;3.00;99.90
35607;DHT22;21729;58.392;15.656;2023-04-03T15:55:46;3.00;99.90